Time;durP1;ratioP1;P1;durP2;ratioP2;P2;SDS_P1;SDS_P2;PMS_P1;PMS_P2;Temp;Humidity;BMP_temperature;BMP_pressure;BME280_temperature;BME280_humidity;BME280_pressure;Samples;Min_cycle;Max_cycle;Signal;HPM_P1;HPM_P2
2022/05/10 00:01:35;;;;;;;22.13;7.75;;;;;;;15.19;56.45;101905.06;5017692;28;20044;-36
2022/05/10 00:04:02;;;;;;;23.90;8.25;;;;;;;15.34;55.71;101908.63;5022340;28;20026;-33
2022/05/10 00:06:32;;;;;;;22.30;7.47;;;;;;;15.47;54.97;101911.50;5001897;28;20041;-35
2022/05/10 00:08:58;;;;;;;27.65;8.88;;;;;;;15.55;54.54;101900.53;5000412;28;20038;-34
2022/05/10 00:11:23;;;;;;;25.92;7.88;;;;;;;15.63;54.66;101904.19;5015177;28;20072;-35
2022/05/10 00:13:49;;;;;;;20.85;7.50;;;;;;;15.67;54.62;101902.81;5016826;28;20477;-34
2022/05/10 00:16:15;;;;;;;25.75;7.72;;;;;;;15.72;53.94;101892.25;5017210;28;20117;-35
2022/05/10 00:18:41;;;;;;;28.80;7.60;;;;;;;15.79;54.00;101893.16;5023193;28;20017;-34
2022/05/10 00:21:08;;;;;;;23.05;7.70;;;;;;;15.80;53.50;101887.53;5023179;28;20061;-35
2022/05/10 00:23:33;;;;;;;21.88;7.10;;;;;;;15.86;53.11;101890.53;5005883;28;20596;-35
2022/05/10 00:25:59;;;;;;;30.10;8.88;;;;;;;15.89;53.49;101882.81;5024186;28;20058;-33
2022/05/10 00:28:24;;;;;;;19.95;6.65;;;;;;;15.91;53.48;101883.50;5024359;28;20113;-34
2022/05/10 00:30:50;;;;;;;25.00;6.72;;;;;;;15.91;53.76;101882.66;5022856;28;20456;-34
2022/05/10 00:33:18;;;;;;;24.42;7.68;;;;;;;15.91;54.15;101882.66;5022203;28;20026;-33
2022/05/10 00:35:43;;;;;;;20.75;6.88;;;;;;;15.90;53.32;101881.78;5025953;28;20558;-33
2022/05/10 00:38:09;;;;;;;26.42;7.05;;;;;;;15.92;53.18;101873.47;5024555;28;20030;-33
2022/05/10 00:40:36;;;;;;;18.10;5.80;;;;;;;15.93;53.72;101867.84;5022924;28;20036;-33
2022/05/10 00:43:05;;;;;;;18.98;6.35;;;;;;;15.93;53.27;101859.72;5023337;28;20045;-33
2022/05/10 00:45:50;;;;;;;19.60;6.28;;;;;;;15.96;54.47;101861.19;5017653;28;20034;-36
2022/05/10 00:48:25;;;;;;;21.27;7.13;;;;;;;15.93;54.98;101859.72;5009441;28;20057;-33
2022/05/10 00:51:12;;;;;;;18.08;6.07;;;;;;;15.90;52.72;101854.63;5031245;28;20034;-33
2022/05/10 00:53:50;;;;;;;22.98;7.40;;;;;;;15.95;53.22;101854.91;5044518;28;20026;-33
2022/05/10 00:56:24;;;;;;;24.95;7.72;;;;;;;15.95;53.22;101846.75;5034548;28;20029;-34
2022/05/10 00:59:15;;;;;;;21.20;7.32;;;;;;;15.93;53.58;101854.28;5022698;28;20036;-34
2022/05/10 01:01:43;;;;;;;24.20;7.53;;;;;;;15.91;53.93;101844.66;5022453;28;20026;-34
2022/05/10 01:04:25;;;;;;;25.55;7.10;;;;;;;15.89;54.59;101841.28;5022608;28;20018;-35
2022/05/10 01:07:02;;;;;;;29.92;8.68;;;;;;;15.82;54.25;101843.91;5026202;28;20121;-34
2022/05/10 01:09:49;;;;;;;24.10;7.60;;;;;;;15.80;54.72;101833.25;5022439;28;20473;-35
2022/05/10 01:12:21;;;;;;;29.63;8.50;;;;;;;15.80;54.42;101829.72;5003893;28;20019;-34
2022/05/10 01:15:00;;;;;;;33.15;9.05;;;;;;;15.79;54.53;101836.16;5002038;28;20026;-33
2022/05/10 01:17:26;;;;;;;27.50;8.63;;;;;;;15.78;54.47;101829.06;5001634;28;20022;-33
2022/05/10 01:19:51;;;;;;;24.77;8.38;;;;;;;15.80;54.51;101827.00;5004779;28;20040;-32
2022/05/10 01:22:25;;;;;;;21.45;8.88;;;;;;;15.75;54.73;101818.59;5021918;28;20029;-35
2022/05/10 01:24:57;;;;;;;32.78;8.88;;;;;;;15.74;55.05;101817.72;5026494;28;20034;-32
2022/05/10 01:27:47;;;;;;;28.20;8.98;;;;;;;15.74;55.27;101808.75;5026623;28;20030;-32
2022/05/10 01:30:24;;;;;;;24.73;9.80;;;;;;;15.76;54.87;101807.50;5023892;28;20026;-32
2022/05/10 01:36:01;;;;;;;34.20;10.18;;;;;;;15.79;55.41;101787.28;5021477;28;20119;-33
2022/05/10 01:38:54;;;;;;;32.80;10.00;;;;;;;15.83;55.05;101785.88;5024223;28;20037;-33
2022/05/10 01:41:27;;;;;;;26.10;9.60;;;;;;;15.91;55.02;101784.91;5019733;28;20034;-33
2022/05/10 01:43:55;;;;;;;26.38;9.70;;;;;;;15.90;55.10;101785.94;5018090;28;20061;-33
2022/05/10 01:46:24;;;;;;;25.42;9.85;;;;;;;15.92;55.53;101784.72;5019192;28;20041;-33
2022/05/10 01:48:52;;;;;;;34.58;8.93;;;;;;;15.91;55.24;101777.59;5017765;28;20026;-34
2022/05/10 01:51:22;;;;;;;24.20;9.38;;;;;;;15.95;55.59;101783.47;5017674;28;20038;-34
2022/05/10 01:53:48;;;;;;;28.10;9.95;;;;;;;15.96;55.32;101774.31;5021121;28;20034;-34
2022/05/10 01:56:17;;;;;;;29.23;10.35;;;;;;;15.97;55.70;101776.81;5019349;28;20022;-34
2022/05/10 01:58:44;;;;;;;31.70;9.85;;;;;;;15.97;55.81;101770.56;5001358;28;20076;-35
2022/05/10 02:01:15;;;;;;;26.48;9.65;;;;;;;16.04;55.51;101771.47;5017955;28;20061;-35
2022/05/10 02:03:54;;;;;;;25.83;10.30;;;;;;;16.04;55.70;101768.75;5018092;28;20036;-34
2022/05/10 02:06:35;;;;;;;21.63;8.57;;;;;;;16.12;55.52;101762.34;5018788;28;20389;-34
2022/05/10 02:09:18;;;;;;;35.75;9.52;;;;;;;16.06;56.30;101760.38;5022768;28;20128;-35
2022/05/10 02:11:49;;;;;;;28.70;9.07;;;;;;;16.01;56.21;101759.13;5042579;28;20079;-35
2022/05/10 02:14:21;;;;;;;30.55;9.13;;;;;;;16.02;56.30;101754.53;5025204;28;20052;-34
2022/05/10 02:16:54;;;;;;;24.45;8.85;;;;;;;15.99;56.63;101749.50;5021269;28;20105;-34
2022/05/10 02:19:23;;;;;;;29.25;8.60;;;;;;;15.92;56.63;101748.56;5018722;28;20026;-34
2022/05/10 02:21:56;;;;;;;31.00;10.02;;;;;;;15.94;56.72;101746.50;5019673;28;20022;-33
2022/05/10 02:24:30;;;;;;;29.73;8.70;;;;;;;16.01;56.75;101742.00;5001826;28;20037;-34
2022/05/10 02:26:58;;;;;;;32.42;9.10;;;;;;;15.93;56.80;101739.38;5032972;28;20068;-34
2022/05/10 02:29:29;;;;;;;30.73;9.00;;;;;;;15.98;56.85;101736.94;5036622;28;20487;-33
2022/05/10 02:34:45;;;;;;;23.92;9.55;;;;;;;15.95;57.09;101732.72;5037006;28;20099;-34
2022/05/10 02:37:12;;;;;;;21.70;8.38;;;;;;;15.91;57.22;101733.34;5016653;28;20041;-33
2022/05/10 02:39:37;;;;;;;24.40;9.15;;;;;;;15.90;57.74;101734.34;5024551;28;20036;-33
2022/05/10 02:42:04;;;;;;;30.42;10.02;;;;;;;15.89;57.63;101729.97;5036989;28;20029;-32
2022/05/10 02:44:29;;;;;;;25.20;9.18;;;;;;;15.93;57.66;101723.97;5029582;28;20034;-34
2022/05/10 02:46:57;;;;;;;21.60;9.43;;;;;;;15.97;57.73;101718.97;5019926;28;20461;-34
2022/05/10 02:49:23;;;;;;;23.85;9.63;;;;;;;15.99;57.57;101720.44;4996453;28;20022;-33
2022/05/10 02:51:48;;;;;;;21.83;9.65;;;;;;;16.04;57.35;101717.16;5002228;28;20367;-33
2022/05/10 02:54:14;;;;;;;33.90;9.77;;;;;;;16.02;57.47;101719.22;5001956;28;20548;-33
2022/05/10 02:56:40;;;;;;;31.73;9.98;;;;;;;16.00;57.51;101716.69;5020744;28;20041;-34
2022/05/10 02:59:11;;;;;;;23.23;10.13;;;;;;;16.04;57.23;101703.59;5019654;28;20022;-33
2022/05/10 03:01:44;;;;;;;23.38;9.90;;;;;;;16.07;57.49;101705.06;5017461;28;20033;-34
2022/05/10 03:04:11;;;;;;;32.33;11.20;;;;;;;16.01;57.82;101702.09;5020232;28;20436;-33
2022/05/10 03:06:38;;;;;;;29.95;10.10;;;;;;;16.01;57.70;101702.09;5020998;28;20469;-32
2022/05/10 03:09:04;;;;;;;29.25;11.45;;;;;;;16.01;57.82;101703.97;5019589;28;20065;-34
2022/05/10 03:11:29;;;;;;;27.55;11.32;;;;;;;16.01;58.06;101704.81;5020140;28;20022;-34
2022/05/10 03:13:55;;;;;;;33.92;10.65;;;;;;;16.05;57.47;101705.25;5019712;28;20018;-32
2022/05/10 03:16:23;;;;;;;29.35;10.38;;;;;;;16.04;57.65;101700.88;5018143;28;20519;-34
2022/05/10 03:18:48;;;;;;;36.08;10.27;;;;;;;16.11;57.21;101698.19;5017193;28;20076;-34
2022/05/10 03:21:14;;;;;;;29.92;11.25;;;;;;;16.02;57.51;101694.78;5017350;28;20125;-34
2022/05/10 03:23:39;;;;;;;27.02;11.25;;;;;;;16.02;57.76;101700.22;5017301;28;20030;-34
2022/05/10 03:26:05;;;;;;;29.42;11.68;;;;;;;15.96;57.80;101693.69;5016791;28;20080;-34
2022/05/10 03:28:30;;;;;;;35.95;10.73;;;;;;;15.94;58.10;101686.78;5016544;28;20426;-35
2022/05/10 03:30:56;;;;;;;30.70;10.68;;;;;;;15.99;58.01;101687.88;5015377;28;20374;-33
2022/05/10 03:33:22;;;;;;;32.10;11.32;;;;;;;15.97;58.18;101681.78;5016733;28;20034;-35
2022/05/10 03:35:47;;;;;;;37.42;11.45;;;;;;;15.98;58.11;101678.06;5015574;28;20057;-34
2022/05/10 03:38:13;;;;;;;30.67;11.48;;;;;;;16.01;57.83;101680.38;5013189;28;20026;-33
2022/05/10 03:40:38;;;;;;;30.75;11.75;;;;;;;15.97;58.28;101675.53;5016673;28;20070;-34
2022/05/10 03:43:07;;;;;;;28.42;10.88;;;;;;;15.95;58.15;101677.59;5016898;28;20065;-34
2022/05/10 03:45:33;;;;;;;31.45;11.02;;;;;;;15.93;58.08;101674.22;5016372;28;20121;-34
2022/05/10 03:47:58;;;;;;;34.58;11.63;;;;;;;15.90;57.72;101680.88;5018022;28;20058;-33
2022/05/10 03:50:24;;;;;;;30.95;11.02;;;;;;;15.91;58.02;101671.72;5018340;28;20026;-34
2022/05/10 03:52:50;;;;;;;27.13;11.20;;;;;;;15.91;58.11;101674.44;5019533;28;20037;-34
2022/05/10 03:55:18;;;;;;;32.08;11.68;;;;;;;15.96;57.96;101671.16;5020212;28;20018;-34
2022/05/10 03:57:44;;;;;;;30.13;11.50;;;;;;;15.96;57.60;101663.84;5020681;28;20034;-35
2022/05/10 04:00:14;;;;;;;27.42;11.43;;;;;;;15.95;58.21;101656.72;5021003;28;20034;-33
2022/05/10 04:02:40;;;;;;;27.13;11.27;;;;;;;16.04;57.51;101654.69;5019723;28;20112;-34
2022/05/10 04:05:06;;;;;;;37.00;12.80;;;;;;;15.99;57.57;101652.56;5021096;28;20033;-34
2022/05/10 04:07:31;;;;;;;39.10;12.05;;;;;;;16.05;57.50;101645.50;5018486;28;20421;-34
2022/05/10 04:09:57;;;;;;;26.20;12.18;;;;;;;15.99;57.85;101647.16;5020422;28;20041;-33
2022/05/10 04:12:23;;;;;;;33.58;11.70;;;;;;;16.01;57.82;101645.06;5020357;28;20032;-35
2022/05/10 04:14:48;;;;;;;34.20;11.45;;;;;;;16.05;57.76;101640.06;5020214;28;20062;-33
2022/05/10 04:17:13;;;;;;;27.08;11.02;;;;;;;16.11;57.45;101650.13;5019702;28;20030;-35
2022/05/10 04:19:39;;;;;;;29.33;11.45;;;;;;;16.16;57.58;101647.66;5019311;28;20022;-35
2022/05/10 04:22:04;;;;;;;35.38;12.93;;;;;;;16.24;57.00;101642.09;5019644;28;20037;-34
2022/05/10 04:24:30;;;;;;;32.20;12.45;;;;;;;16.18;57.53;101647.47;5018777;28;20030;-34
2022/05/10 04:26:55;;;;;;;32.42;11.52;;;;;;;16.17;57.38;101640.38;5020111;28;20026;-34
2022/05/10 04:29:21;;;;;;;31.45;13.40;;;;;;;16.22;57.14;101646.88;5019781;28;20053;-33
2022/05/10 04:31:46;;;;;;;34.00;12.05;;;;;;;16.24;57.22;101641.25;5020636;28;20030;-33
2022/05/10 04:34:12;;;;;;;36.13;11.98;;;;;;;16.20;57.53;101642.69;5019116;28;20068;-33
2022/05/10 04:36:37;;;;;;;30.55;12.20;;;;;;;16.28;57.14;101634.38;5022016;28;20116;-35
2022/05/10 04:39:03;;;;;;;32.20;12.35;;;;;;;16.32;57.20;101641.06;5026929;28;20073;-33
2022/05/10 04:41:32;;;;;;;31.05;11.60;;;;;;;16.39;56.92;101631.09;5023965;28;20199;-33
2022/05/10 04:44:06;;;;;;;33.28;11.55;;;;;;;16.39;56.76;101627.53;5024815;28;20507;-34
2022/05/10 04:46:35;;;;;;;35.40;11.48;;;;;;;16.40;56.81;101624.63;5021923;28;20033;-34
2022/05/10 04:49:00;;;;;;;33.40;12.77;;;;;;;16.42;56.48;101632.56;5019272;28;20361;-34
2022/05/10 04:51:25;;;;;;;34.72;11.98;;;;;;;16.44;56.67;101622.34;5019731;28;20030;-34
2022/05/10 04:53:51;;;;;;;32.60;12.60;;;;;;;16.46;56.56;101614.84;5020365;28;20037;-34
2022/05/10 04:56:17;;;;;;;39.08;12.82;;;;;;;16.50;56.70;101609.81;5019398;28;20049;-34
2022/05/10 04:58:43;;;;;;;31.60;11.40;;;;;;;16.53;56.26;101623.84;5019368;28;20029;-33
2022/05/10 05:01:10;;;;;;;39.03;12.50;;;;;;;16.63;56.13;101631.63;5017804;28;20037;-33
2022/05/10 05:03:36;;;;;;;33.95;11.70;;;;;;;16.61;56.74;101631.84;5016662;28;20123;-32
2022/05/10 05:06:02;;;;;;;37.83;12.40;;;;;;;16.55;56.59;101629.91;5018520;28;20451;-33
2022/05/10 05:08:27;;;;;;;34.97;12.32;;;;;;;16.68;56.04;101634.56;5018841;28;20049;-34
2022/05/10 05:10:54;;;;;;;38.58;12.82;;;;;;;16.60;56.54;101635.56;5019240;28;20077;-34
2022/05/10 05:13:19;;;;;;;37.83;12.68;;;;;;;16.62;56.37;101632.66;5020136;28;20029;-33
2022/05/10 05:15:45;;;;;;;40.05;13.02;;;;;;;16.59;56.94;101633.06;5018338;28;20094;-35
2022/05/10 05:18:10;;;;;;;37.13;12.68;;;;;;;16.59;56.79;101630.34;5018627;28;20522;-34
2022/05/10 05:20:38;;;;;;;43.03;12.90;;;;;;;16.64;56.87;101638.72;5026606;28;20543;-34
2022/05/10 05:23:08;;;;;;;34.00;12.27;;;;;;;16.70;56.80;101631.66;5022954;28;20029;-34
2022/05/10 05:25:35;;;;;;;49.15;14.30;;;;;;;16.68;56.84;101629.97;5018891;28;20527;-35
2022/05/10 05:28:00;;;;;;;45.30;13.68;;;;;;;16.74;56.51;101628.31;5018016;28;20083;-33
2022/05/10 05:30:25;;;;;;;36.35;13.23;;;;;;;16.79;56.22;101625.84;5019000;28;20061;-34
2022/05/10 05:32:51;;;;;;;38.58;13.20;;;;;;;16.85;56.07;101625.06;5008231;28;20046;-34
2022/05/10 05:35:16;;;;;;;42.05;13.10;;;;;;;16.91;55.98;101622.56;5004349;28;20021;-34
2022/05/10 05:37:42;;;;;;;37.63;13.88;;;;;;;16.92;55.98;101625.06;5022307;28;20036;-35
2022/05/10 05:40:12;;;;;;;39.95;13.38;;;;;;;17.01;56.06;101620.25;5031557;28;20114;-35
2022/05/10 05:42:37;;;;;;;49.60;14.65;;;;;;;17.01;55.66;101617.53;5026838;28;20120;-33
2022/05/10 05:45:04;;;;;;;39.92;13.05;;;;;;;17.11;55.68;101615.25;5024079;28;20053;-34
2022/05/10 05:47:30;;;;;;;41.65;12.65;;;;;;;17.18;55.70;101618.84;5020377;28;20025;-35
2022/05/10 05:49:55;;;;;;;45.05;12.75;;;;;;;17.19;55.62;101615.06;5022061;28;20492;-33
2022/05/10 05:52:22;;;;;;;38.95;12.63;;;;;;;17.21;55.68;101602.09;5041649;28;20049;-32
2022/05/10 05:54:48;;;;;;;50.22;13.10;;;;;;;17.33;55.10;101611.34;5036802;28;20030;-33
2022/05/10 05:57:14;;;;;;;44.53;12.85;;;;;;;17.33;55.31;101607.78;5023329;28;20017;-32
2022/05/10 05:59:39;;;;;;;35.92;12.00;;;;;;;17.32;55.35;101609.66;5019567;28;20037;-35
2022/05/10 06:02:10;;;;;;;31.98;11.20;;;;;;;17.37;55.47;101616.34;5019735;28;20025;-34
2022/05/10 06:04:36;;;;;;;41.28;12.80;;;;;;;17.41;55.17;101613.00;5020203;28;20117;-34
2022/05/10 06:07:01;;;;;;;48.50;12.95;;;;;;;17.46;54.85;101605.06;5020063;28;20029;-35
2022/05/10 06:09:26;;;;;;;37.55;12.63;;;;;;;17.49;54.49;101610.09;5017548;28;20038;-33
2022/05/10 06:11:52;;;;;;;31.58;11.73;;;;;;;17.51;54.71;101602.56;5019718;28;20045;-35
2022/05/10 06:14:18;;;;;;;35.83;11.60;;;;;;;17.57;54.71;101590.00;5020105;28;20029;-34
2022/05/10 06:16:43;;;;;;;32.78;10.77;;;;;;;17.65;54.42;101591.66;5020954;28;20519;-34
2022/05/10 06:19:10;;;;;;;39.00;11.38;;;;;;;17.74;54.28;101585.75;5020120;28;20026;-31
2022/05/10 06:21:36;;;;;;;31.92;12.02;;;;;;;17.87;53.91;101586.84;5019842;28;20021;-34
2022/05/10 06:24:01;;;;;;;28.02;11.55;;;;;;;17.83;54.17;101589.16;5021427;28;20383;-34
2022/05/10 06:26:27;;;;;;;33.72;11.20;;;;;;;17.89;54.00;101587.47;5021293;28;20022;-34
2022/05/10 06:28:52;;;;;;;28.15;10.45;;;;;;;17.97;53.93;101581.78;5020459;28;20026;-35
2022/05/10 06:31:17;;;;;;;30.05;9.35;;;;;;;18.03;54.03;101591.00;5018468;28;20102;-35
2022/05/10 06:33:43;;;;;;;27.95;9.77;;;;;;;18.08;53.56;101575.69;5018993;28;20022;-35
2022/05/10 06:36:08;;;;;;;36.33;9.90;;;;;;;18.13;53.58;101572.31;5019209;28;20137;-34
2022/05/10 06:38:34;;;;;;;24.73;9.02;;;;;;;18.21;53.13;101583.81;5021485;28;20041;-35
2022/05/10 06:41:01;;;;;;;34.22;8.80;;;;;;;18.26;52.51;101576.91;5038542;28;20033;-32
2022/05/10 06:43:28;;;;;;;29.27;8.70;;;;;;;18.35;52.53;101572.88;5014685;28;20057;-32
2022/05/10 06:45:57;;;;;;;26.00;9.75;;;;;;;18.42;52.41;101566.34;5003553;28;20123;-32
2022/05/10 06:48:23;;;;;;;27.30;8.60;;;;;;;18.48;52.30;101564.63;5020424;28;20053;-35
2022/05/10 06:50:48;;;;;;;23.88;8.75;;;;;;;18.58;52.12;101586.81;5021426;28;20018;-32
2022/05/10 06:53:14;;;;;;;25.50;8.90;;;;;;;18.60;51.97;101571.09;5021629;28;20022;-32
2022/05/10 06:55:40;;;;;;;23.55;8.82;;;;;;;18.68;51.70;101569.16;5019227;28;20112;-35
2022/05/10 06:58:05;;;;;;;26.27;9.75;;;;;;;18.71;51.46;101564.09;5022868;28;20026;-32
2022/05/10 07:00:32;;;;;;;22.27;8.75;;;;;;;18.86;51.18;101567.41;5010088;28;20038;-33
2022/05/10 07:02:58;;;;;;;26.63;8.77;;;;;;;18.82;51.70;101549.78;5022140;28;20052;-32
2022/05/10 07:05:23;;;;;;;22.58;8.23;;;;;;;18.88;51.61;101559.00;5025235;28;20097;-34
2022/05/10 07:07:48;;;;;;;21.17;8.82;;;;;;;18.89;51.42;101560.69;5024946;28;20464;-33
2022/05/10 07:10:16;;;;;;;21.58;8.77;;;;;;;18.90;51.37;101550.59;5017064;28;20026;-37
2022/05/10 07:12:43;;;;;;;26.65;8.85;;;;;;;18.94;51.88;101574.50;5019895;28;20043;-33
2022/05/10 07:15:12;;;;;;;32.75;9.45;;;;;;;18.99;51.43;101561.03;5019218;28;20045;-35
2022/05/10 07:17:39;;;;;;;19.55;8.52;;;;;;;18.98;51.29;101559.34;5020445;28;20065;-34
2022/05/10 07:20:06;;;;;;;25.10;8.15;;;;;;;19.03;51.10;101564.97;5018636;28;20033;-35
2022/05/10 07:22:32;;;;;;;19.17;8.25;;;;;;;19.06;51.39;101572.75;5016640;28;20088;-33
2022/05/10 07:24:57;;;;;;;26.23;8.90;;;;;;;19.14;51.70;101562.59;5015763;28;20050;-34
2022/05/10 07:27:22;;;;;;;20.42;8.95;;;;;;;19.24;50.88;101549.28;5018155;28;20120;-34
2022/05/10 07:29:47;;;;;;;16.65;7.95;;;;;;;19.52;50.97;101546.94;5019739;28;20119;-35
2022/05/10 07:32:14;;;;;;;20.52;7.75;;;;;;;19.85;50.53;101550.44;5016394;28;20084;-33
2022/05/10 07:34:43;;;;;;;25.87;8.27;;;;;;;20.03;49.47;101544.16;5016523;28;20057;-34
2022/05/10 07:37:08;;;;;;;19.88;7.35;;;;;;;20.22;48.99;101547.72;5017330;28;20440;-34
2022/05/10 07:39:35;;;;;;;15.38;7.78;;;;;;;20.34;49.40;101541.25;5016472;28;20030;-33
2022/05/10 07:42:03;;;;;;;21.35;7.40;;;;;;;20.34;48.90;101538.50;5015642;28;20037;-35
2022/05/10 07:44:29;;;;;;;23.17;7.93;;;;;;;20.45;48.52;101541.53;5010908;28;20230;-34
2022/05/10 07:46:54;;;;;;;25.38;7.90;;;;;;;20.64;47.77;101548.66;5010937;28;20036;-35
2022/05/10 07:49:19;;;;;;;16.10;7.22;;;;;;;20.94;47.79;101540.44;5020513;28;20026;-35
2022/05/10 07:51:45;;;;;;;21.50;7.68;;;;;;;21.16;46.95;101537.97;5013980;28;20118;-35
2022/05/10 07:54:10;;;;;;;16.80;6.95;;;;;;;21.18;46.21;101546.78;5019384;28;20030;-34
2022/05/10 07:56:37;;;;;;;16.55;7.88;;;;;;;21.10;46.06;101541.66;5017927;28;20022;-34
2022/05/10 07:59:03;;;;;;;18.25;7.50;;;;;;;21.22;45.83;101542.53;5020223;28;20026;-36
2022/05/10 08:01:29;;;;;;;15.23;6.82;;;;;;;21.56;46.35;101537.31;5020643;28;20026;-35
2022/05/10 08:03:54;;;;;;;18.63;7.25;;;;;;;21.52;45.17;101541.63;5019609;28;20034;-34
2022/05/10 08:06:20;;;;;;;26.70;7.78;;;;;;;21.11;47.04;101540.59;5020783;28;20030;-33
2022/05/10 08:08:45;;;;;;;24.15;8.00;;;;;;;20.92;47.23;101537.09;5019043;28;20037;-33
2022/05/10 08:11:11;;;;;;;19.00;7.88;;;;;;;20.69;47.50;101537.03;5020085;28;20377;-33
2022/05/10 08:13:37;;;;;;;18.30;8.05;;;;;;;20.98;47.27;101536.16;5020378;28;20172;-35
2022/05/10 08:16:03;;;;;;;22.30;7.85;;;;;;;21.25;46.50;101541.22;5020828;28;20041;-34
2022/05/10 08:18:29;;;;;;;25.92;8.35;;;;;;;21.03;47.05;101544.50;5021380;28;20026;-34
2022/05/10 08:20:57;;;;;;;18.52;8.10;;;;;;;21.05;47.12;101547.84;5019387;28;20057;-33
2022/05/10 08:23:25;;;;;;;23.15;8.35;;;;;;;20.82;48.07;101537.66;4999725;28;20022;-33
2022/05/10 08:25:55;;;;;;;23.88;7.78;;;;;;;20.96;48.04;101538.31;5019805;28;20034;-33
2022/05/10 08:28:22;;;;;;;21.33;8.05;;;;;;;21.18;47.51;101529.53;5028583;28;20045;-35
2022/05/10 08:30:47;;;;;;;18.48;8.05;;;;;;;20.82;47.98;101534.91;5037028;28;20030;-36
2022/05/10 08:33:27;;;;;;;28.30;8.30;;;;;;;20.95;47.56;101533.88;5039931;28;20029;-34
2022/05/10 08:35:54;;;;;;;21.67;7.93;;;;;;;21.35;47.45;101535.16;5027632;28;20041;-33
2022/05/10 08:38:20;;;;;;;17.85;7.72;;;;;;;21.93;46.02;101537.06;5021220;28;20448;-34
2022/05/10 08:40:49;;;;;;;17.70;6.78;;;;;;;22.92;44.82;101536.03;5039109;28;20037;-34
2022/05/10 08:43:23;;;;;;;23.30;7.47;;;;;;;23.27;43.09;101560.53;5020249;28;20327;-34
2022/05/10 08:45:48;;;;;;;16.88;7.18;;;;;;;23.33;43.63;101559.56;5024442;28;20044;-34
2022/05/10 08:48:14;;;;;;;21.92;7.28;;;;;;;23.09;43.76;101563.50;5031936;28;20022;-33
2022/05/10 08:50:42;;;;;;;21.33;7.65;;;;;;;22.53;43.76;101553.13;5020320;28;20033;-34
2022/05/10 08:53:08;;;;;;;19.08;7.60;;;;;;;21.85;45.27;101554.72;5018701;28;20665;-34
2022/05/10 08:55:38;;;;;;;24.23;7.80;;;;;;;21.48;45.92;101551.38;5034866;28;20030;-33
2022/05/10 08:58:25;;;;;;;19.05;7.70;;;;;;;21.35;46.22;101543.34;5012914;28;20088;-34
2022/05/10 09:00:53;;;;;;;;;;;;;;;21.62;46.36;101546.53;5011456;28;20447;-34
2022/05/10 09:03:34;;;;;;;18.40;7.80;;;;;;;21.64;45.97;101555.31;5019704;28;19921;-34
2022/05/10 09:06:07;;;;;;;26.02;8.32;;;;;;;21.40;46.95;101554.47;5022055;28;20125;-34
2022/05/10 09:08:46;;;;;;;19.75;8.10;;;;;;;21.45;46.82;101557.34;4996301;28;20044;-34
2022/05/10 09:11:14;;;;;;;24.15;8.10;;;;;;;21.08;47.60;101549.28;5003233;28;20426;-34
2022/05/10 09:13:41;;;;;;;21.15;8.45;;;;;;;20.92;48.34;101556.25;5024266;28;20030;-34
2022/05/10 09:16:09;;;;;;;28.75;8.90;;;;;;;20.82;48.76;101551.34;5023575;28;20799;-34
2022/05/10 09:18:46;;;;;;;19.08;8.48;;;;;;;20.68;49.61;101541.66;5021665;28;20026;-34
2022/05/10 09:21:12;;;;;;;;;;;;;;;20.87;49.51;101552.56;5015845;28;20037;-35
2022/05/10 09:24:06;;;;;;;20.27;7.87;;;;;;;20.91;49.48;101554.59;5022957;28;19909;-36
2022/05/10 09:26:37;;;;;;;24.77;8.55;;;;;;;20.94;48.47;101553.31;5018008;28;20424;-34
2022/05/10 09:29:32;;;;;;;22.90;7.68;;;;;;;21.10;48.75;101563.56;5018215;28;20100;-34
2022/05/10 09:34:58;;;;;;;22.55;7.95;;;;;;;21.11;48.23;101567.97;5017315;28;20100;-35
2022/05/10 09:37:33;;;;;;;23.98;7.78;;;;;;;21.29;47.71;101558.00;5014849;28;20077;-34
2022/05/10 09:40:11;;;;;;;49.25;7.88;;;;;;;21.37;46.31;101571.34;4980654;28;20034;-34
2022/05/10 09:42:42;;;;;;;24.05;7.82;;;;;;;21.70;46.81;101574.38;5017313;28;20070;-34
2022/05/10 09:45:26;;;;;;;26.10;7.10;;;;;;;22.20;43.10;101574.97;5015914;28;20026;-35
2022/05/10 09:48:13;;;;;;;23.45;7.13;;;;;;;22.46;43.07;101563.44;5016439;28;20030;-33
2022/05/10 09:50:39;;;;;;;;;;;;;;;22.41;43.32;101559.75;5013496;28;20029;-35
2022/05/10 09:53:18;;;;;;;23.80;7.73;;;;;;;22.00;44.07;101584.38;5015226;28;19905;-35
2022/05/10 09:56:03;;;;;;;27.17;7.88;;;;;;;20.97;45.82;101569.25;4996464;28;20081;-35
2022/05/10 09:58:42;;;;;;;22.08;7.15;;;;;;;21.30;46.70;101581.56;4996423;28;20095;-35
2022/05/10 10:01:11;;;;;;;30.35;7.07;;;;;;;20.94;45.76;101578.75;4994318;28;20026;-36
2022/05/10 10:03:38;;;;;;;32.35;6.78;;;;;;;21.11;45.54;101589.84;5012034;28;20064;-35
2022/05/10 10:06:24;;;;;;;21.23;6.53;;;;;;;21.81;44.87;101591.06;4997134;28;20057;-35
2022/05/10 10:08:55;;;;;;;37.03;8.15;;;;;;;21.57;44.20;101582.84;5008617;28;20034;-35
2022/05/10 10:11:23;;;;;;;15.88;7.25;;;;;;;21.40;44.99;101581.84;5012142;28;20136;-35
2022/05/10 10:13:52;;;;;;;21.73;6.57;;;;;;;21.64;45.16;101583.56;5012775;28;20026;-34
2022/05/10 10:16:24;;;;;;;16.90;7.10;;;;;;;21.97;44.44;101587.59;5012310;28;20405;-36
2022/05/10 10:18:53;;;;;;;18.33;7.30;;;;;;;22.41;42.58;101582.53;5012265;28;20055;-35
2022/05/10 10:21:22;;;;;;;24.45;6.68;;;;;;;22.89;42.31;101583.19;5013137;28;20041;-35
2022/05/10 10:23:52;;;;;;;19.83;6.40;;;;;;;23.61;40.47;101580.59;5012356;28;20034;-35
2022/05/10 10:26:35;;;;;;;26.17;6.43;;;;;;;23.19;40.50;101599.41;4997145;28;20133;-36
2022/05/10 10:29:13;;;;;;;28.00;6.13;;;;;;;22.01;41.42;101582.44;4990960;28;20053;-35
2022/05/10 10:31:42;;;;;;;21.35;5.57;;;;;;;22.17;41.44;101575.38;4995403;28;20342;-34
2022/05/10 10:34:18;;;;;;;17.80;5.00;;;;;;;22.30;40.87;101586.13;4995691;28;20029;-35
2022/05/10 10:37:07;;;;;;;14.23;4.78;;;;;;;22.21;40.58;101576.63;5004935;28;20145;-34
2022/05/10 10:40:04;;;;;;;16.48;5.07;;;;;;;21.39;41.93;101574.72;5001361;28;20067;-35
2022/05/10 10:42:36;;;;;;;16.98;5.05;;;;;;;21.09;42.85;101575.59;5005574;28;20033;-34
2022/05/10 10:45:04;;;;;;;22.80;4.35;;;;;;;21.52;41.06;101579.16;5018592;28;20052;-35
2022/05/10 10:47:57;;;;;;;11.85;3.42;;;;;;;21.25;40.63;101571.34;5013376;28;20034;-34
2022/05/10 10:50:30;;;;;;;13.82;3.85;;;;;;;21.32;41.01;101574.78;5015731;28;20038;-34
2022/05/10 10:52:57;;;;;;;14.13;4.30;;;;;;;21.51;40.52;101561.84;5009867;28;20069;-34
2022/05/10 10:55:24;;;;;;;;;;;;;;;21.98;39.67;101572.81;5010486;28;20030;-33
2022/05/10 10:58:07;;;;;;;12.17;3.93;;;;;;;22.62;38.77;101567.31;5010275;28;19932;-33
2022/05/10 11:00:39;;;;;;;13.07;4.90;;;;;;;22.87;39.53;101560.63;5010340;28;20152;-34
2022/05/10 11:03:07;;;;;;;24.55;6.03;;;;;;;22.86;39.69;101562.56;5017014;28;20548;-33
2022/05/10 11:06:11;;;;;;;13.55;5.15;;;;;;;23.12;39.81;101572.09;5012360;28;20034;-33
2022/05/10 11:08:46;;;;;;;19.13;5.35;;;;;;;23.57;38.81;101578.63;5009416;28;20034;-35
2022/05/10 11:11:33;;;;;;;16.73;4.65;;;;;;;23.57;38.76;101557.47;5015820;28;20489;-34
2022/05/10 11:14:17;;;;;;;18.33;4.20;;;;;;;22.80;38.99;101558.03;5013247;28;20100;-34
2022/05/10 11:16:56;;;;;;;21.35;4.28;;;;;;;22.60;39.18;101563.97;5011636;28;20038;-34
2022/05/10 11:19:40;;;;;;;17.88;4.50;;;;;;;21.85;40.30;101556.59;5011905;28;20043;-35
2022/05/10 11:22:21;;;;;;;11.30;4.75;;;;;;;22.32;40.88;101573.00;5015056;28;20057;-34
2022/05/10 11:24:55;;;;;;;17.65;4.72;;;;;;;22.11;40.05;101560.75;5009791;28;20026;-33
2022/05/10 11:27:56;;;;;;;12.00;4.53;;;;;;;21.94;41.49;101559.84;5013957;28;20240;-34
2022/05/10 11:30:45;;;;;;;13.15;5.03;;;;;;;21.65;41.89;101560.56;5011460;28;20045;-35
2022/05/10 11:33:47;;;;;;;17.15;5.13;;;;;;;21.57;42.96;101557.34;5010848;28;20226;-35
2022/05/10 11:36:34;;;;;;;12.20;4.65;;;;;;;21.93;40.77;101553.50;5003738;28;20054;-34